This is the latest recevied weather packets stored in our database for station/object ka8upw-1. If no packets are shown the sender has not sent any weather packets the latest 10 day(s).
| Time | Temp. | Humidity | Pressure | Rain* | Wind** | Luminosity | Snow |
|---|---|---|---|---|---|---|---|
| 1777779905 | 3.89° C | 86% | 1014.9 hPa | 0 mm | - | - | - |
| 1777771083 | 4.44° C | 83% | 1015.1 hPa | 0 mm | - | - | - |
| 1777770141 | 4.44° C | 82% | 1015.1 hPa | 0 mm | - | - | - |
| 1777768564 | 5° C | 77% | 1014.8 hPa | 0 mm | - | - | - |
| 1777764560 | 5.56° C | 69% | 1014.7 hPa | 0 mm | - | - | - |
| 1777757899 | 6.67° C | 69% | 1014.7 hPa | 0 mm | - | - | - |
| 1777754703 | 7.22° C | 64% | 1014.7 hPa | 0 mm | - | - | - |
| 1777752543 | 5.56° C | 75% | 1015 hPa | 0 mm | - | - | - |
| 1777752003 | 5.56° C | 77% | 1015.1 hPa | 0 mm | - | - | - |
| 1777750563 | 5.56° C | 77% | 1015.2 hPa | 0 mm | - | - | - |
| 1777748044 | 5° C | 84% | 1015.5 hPa | 0.25 mm | - | - | - |
| 1777746963 | 4.44° C | 88% | 1015.6 hPa | 0.25 mm | - | - | - |
| 1777746423 | 4.44° C | 89% | 1015.7 hPa | 0.25 mm | - | - | - |
| 1777744445 | 4.44° C | 84% | 1015.8 hPa | 0 mm | - | - | - |
| 1777736703 | 2.22° C | 90% | 1015.8 hPa | 0.76 mm | - | - | - |
| 1777734004 | 4.44° C | 81% | 1015.5 hPa | 0 mm | - | - | - |
| 1777730404 | 4.44° C | 87% | 1015.2 hPa | 0 mm | - | - | - |
| 1777725903 | 2.22° C | 90% | 1014.7 hPa | 0 mm | - | - | - |
| 1777724419 | 1.67° C | 89% | 1014.6 hPa | 0 mm | - | - | - |
| 1777722843 | 1.11° C | 88% | 1014.7 hPa | 0 mm | - | - | - |
| 1777719244 | 2.22° C | 86% | 1014.1 hPa | 0 mm | - | - | - |
| 1777718703 | 2.22° C | 86% | 1014.1 hPa | 0 mm | - | - | - |
| 1777718163 | 2.22° C | 86% | 1014.2 hPa | 0 mm | - | - | - |
| 1777717623 | 2.22° C | 86% | 1014.2 hPa | 0 mm | - | - | - |
| 1777717084 | 2.22° C | 86% | 1014.2 hPa | 0 mm | - | - | - |
* Rain latest hour (hover to see other rain measurements)
** Current wind speed in m/s (hover to see current wind gust speed)